Time;durP1;ratioP1;P1;durP2;ratioP2;P2;SDS_P1;SDS_P2;PMS_P1;PMS_P2;Temp;Humidity;BMP_temperature;BMP_pressure;BME280_temperature;BME280_humidity;BME280_pressure;Samples;Min_cycle;Max_cycle;Signal;HPM_P1;HPM_P2
2021/04/19 00:02:01;;;;;;;3.73;2.00;;;10.60;98.20;;;;;;5108510;27;20272;-68
2021/04/19 00:04:28;;;;;;;5.17;2.10;;;10.60;98.20;;;;;;5112352;27;20202;-68
2021/04/19 00:06:54;;;;;;;2.37;1.80;;;10.50;98.30;;;;;;5112617;27;20294;-68
2021/04/19 00:09:21;;;;;;;4.13;2.07;;;10.60;98.40;;;;;;5104473;28;20660;-69
2021/04/19 00:11:48;;;;;;;3.37;2.20;;;10.50;98.40;;;;;;5108898;27;20257;-68
2021/04/19 00:14:15;;;;;;;2.93;2.10;;;10.50;98.50;;;;;;5107565;28;20343;-67
2021/04/19 00:16:41;;;;;;;6.20;2.20;;;10.50;98.60;;;;;;5107305;27;20274;-67
2021/04/19 00:19:08;;;;;;;2.73;1.77;;;10.50;98.80;;;;;;5104848;28;20271;-67
2021/04/19 00:21:35;;;;;;;2.33;1.93;;;10.50;98.90;;;;;;5111186;27;20235;-67
2021/04/19 00:24:01;;;;;;;2.70;1.90;;;10.50;98.90;;;;;;5111371;27;20562;-67
2021/04/19 00:26:28;;;;;;;2.67;1.60;;;10.40;99.00;;;;;;5110988;27;20774;-67
2021/04/19 00:28:55;;;;;;;2.10;1.63;;;10.40;99.10;;;;;;5110093;27;20512;-67
2021/04/19 00:31:22;;;;;;;8.17;1.80;;;10.50;99.20;;;;;;5112318;27;20277;-67
2021/04/19 00:33:49;;;;;;;4.97;2.03;;;10.40;99.20;;;;;;5109206;28;20197;-68
2021/04/19 00:36:15;;;;;;;3.50;1.57;;;10.40;99.30;;;;;;5108750;28;20199;-68
2021/04/19 00:38:42;;;;;;;2.30;1.70;;;10.40;99.40;;;;;;5109637;27;20283;-67
2021/04/19 00:41:11;;;;;;;5.27;2.30;;;10.40;99.60;;;;;;5110592;27;20281;-67
2021/04/19 00:43:38;;;;;;;9.50;2.33;;;10.40;99.80;;;;;;5109115;27;20270;-67
2021/04/19 00:46:06;;;;;;;3.33;2.10;;;10.30;99.90;;;;;;5107060;28;20704;-67
2021/04/19 00:48:35;;;;;;;5.70;2.50;;;10.30;99.90;;;;;;5113215;27;20261;-67
2021/04/19 00:51:01;;;;;;;7.90;2.20;;;10.30;99.90;;;;;;5108389;28;20251;-67
2021/04/19 00:53:29;;;;;;;3.50;2.07;;;10.30;99.90;;;;;;5112610;27;20612;-68
2021/04/19 00:55:56;;;;;;;2.80;1.70;;;10.20;99.90;;;;;;5107948;28;20186;-68
2021/04/19 00:58:26;;;;;;;3.13;2.00;;;10.20;99.90;;;;;;5105694;28;20194;-68
2021/04/19 01:00:54;;;;;;;4.70;2.23;;;10.30;99.90;;;;;;5107261;28;20444;-68
2021/04/19 01:03:23;;;;;;;3.57;1.70;;;9.20;99.90;;;;;;5110119;28;20274;-68
2021/04/19 01:05:51;;;;;;;2.87;1.70;;;10.20;99.90;;;;;;5108353;28;20219;-68
2021/04/19 01:08:21;;;;;;;4.10;2.00;;;10.10;99.90;;;;;;5111680;27;20208;-67
2021/04/19 01:10:48;;;;;;;2.70;1.63;;;10.10;99.90;;;;;;5109713;27;20214;-67
2021/04/19 01:13:14;;;;;;;4.37;2.00;;;10.10;99.90;;;;;;5106485;28;20474;-68
2021/04/19 01:15:41;;;;;;;7.60;2.20;;;10.10;99.90;;;;;;5106892;28;20286;-68
2021/04/19 01:18:10;;;;;;;7.43;2.37;;;10.10;99.90;;;;;;5108754;28;20207;-67
2021/04/19 01:20:39;;;;;;;3.83;2.03;;;10.10;99.90;;;;;;5108942;28;20227;-67
2021/04/19 01:23:07;;;;;;;5.53;2.37;;;10.00;99.90;;;;;;5108911;27;20196;-68
2021/04/19 01:25:34;;;;;;;3.97;2.10;;;10.00;99.90;;;;;;5108796;27;20198;-67
2021/04/19 01:28:01;;;;;;;4.40;2.10;;;9.90;99.90;;;;;;5109510;27;20668;-67
2021/04/19 01:30:32;;;;;;;3.77;1.90;;;9.90;99.90;;;;;;5112247;27;20190;-67
2021/04/19 01:32:59;;;;;;;4.40;2.30;;;9.80;99.90;;;;;;5106907;28;20669;-67
2021/04/19 01:35:27;;;;;;;2.47;1.80;;;9.80;99.90;;;;;;5107218;28;20202;-68
2021/04/19 01:37:55;;;;;;;4.43;2.30;;;9.80;99.90;;;;;;5109850;28;20200;-67
2021/04/19 01:40:23;;;;;;;4.83;2.20;;;9.80;99.90;;;;;;5107347;28;20914;-68
2021/04/19 01:42:49;;;;;;;4.33;2.17;;;9.70;99.90;;;;;;5107969;28;20288;-68
2021/04/19 01:45:18;;;;;;;2.93;1.90;;;9.70;99.90;;;;;;5106309;27;20688;-68
2021/04/19 01:47:46;;;;;;;3.57;2.13;;;9.60;99.90;;;;;;5110272;27;20254;-68
2021/04/19 01:50:15;;;;;;;2.20;1.73;;;9.60;99.90;;;;;;5115110;27;20274;-68
2021/04/19 01:52:43;;;;;;;5.10;2.27;;;9.60;99.90;;;;;;5112228;27;20554;-68
2021/04/19 01:55:14;;;;;;;2.37;1.90;;;9.60;99.90;;;;;;5113775;27;20320;-67
2021/04/19 01:57:48;;;;;;;2.90;2.00;;;9.60;99.90;;;;;;5096254;28;20197;-67
2021/04/19 02:00:17;;;;;;;2.27;1.60;;;9.50;99.90;;;;;;5106172;28;20228;-67
2021/04/19 02:02:58;;;;;;;2.63;1.73;;;9.60;99.90;;;;;;5119814;27;20207;-67
2021/04/19 02:05:32;;;;;;;4.87;1.87;;;9.90;99.90;;;;;;5109109;27;20242;-67
2021/04/19 02:08:08;;;;;;;2.07;1.50;;;9.50;99.90;;;;;;5091052;28;20230;-67
2021/04/19 02:10:44;;;;;;;4.10;1.80;;;9.50;99.90;;;;;;5110346;27;20281;-68
2021/04/19 02:13:17;;;;;;;2.73;1.43;;;9.50;99.90;;;;;;5123731;27;20528;-67
2021/04/19 02:15:53;;;;;;;3.43;1.90;;;9.50;99.90;;;;;;5105448;28;20290;-67
2021/04/19 02:18:29;;;;;;;2.93;1.97;;;9.50;99.90;;;;;;5107957;28;20676;-68
2021/04/19 02:21:02;;;;;;;3.20;1.80;;;9.50;99.90;;;;;;5108492;28;20308;-67
2021/04/19 02:23:33;;;;;;;4.00;2.00;;;9.50;99.90;;;;;;5106679;28;20229;-68
2021/04/19 02:26:06;;;;;;;3.77;2.37;;;9.40;99.90;;;;;;5109645;28;20293;-67
2021/04/19 02:28:36;;;;;;;3.47;1.93;;;9.50;99.90;;;;;;5107421;28;20196;-67
2021/04/19 02:31:12;;;;;;;3.73;2.20;;;9.40;99.90;;;;;;5092665;28;20209;-67
2021/04/19 02:33:44;;;;;;;2.57;2.10;;;9.40;99.90;;;;;;5121713;27;20205;-67
2021/04/19 02:36:12;;;;;;;2.67;1.80;;;9.40;99.90;;;;;;5108592;28;20274;-67
2021/04/19 02:38:49;;;;;;;2.57;2.03;;;9.40;99.90;;;;;;5106731;28;20206;-67
2021/04/19 02:41:22;;;;;;;1.90;1.60;;;9.40;99.90;;;;;;5106333;28;20205;-67
2021/04/19 02:43:50;;;;;;;2.73;1.67;;;9.40;99.90;;;;;;5123689;27;20204;-67
2021/04/19 02:46:29;;;;;;;3.13;1.70;;;9.40;99.90;;;;;;5108166;28;20215;-67
2021/04/19 02:48:56;;;;;;;2.10;1.57;;;9.40;99.90;;;;;;5110094;28;20234;-67
2021/04/19 02:51:24;;;;;;;3.23;2.10;;;9.50;99.90;;;;;;5110812;28;20209;-68
2021/04/19 02:53:52;;;;;;;3.40;2.50;;;9.40;99.90;;;;;;5122025;27;20246;-67
2021/04/19 02:56:20;;;;;;;3.57;2.03;;;9.40;99.90;;;;;;5112629;28;20696;-67
2021/04/19 02:58:49;;;;;;;3.37;2.20;;;9.40;99.90;;;;;;5106107;28;20517;-68
2021/04/19 03:01:22;;;;;;;5.40;2.20;;;9.40;99.90;;;;;;5106000;28;20256;-68
2021/04/19 03:03:56;;;;;;;3.30;2.20;;;9.40;99.90;;;;;;5107640;28;20325;-68
2021/04/19 03:06:25;;;;;;;1.70;1.37;;;9.30;99.90;;;;;;5107030;28;20225;-68
2021/04/19 03:08:58;;;;;;;2.87;2.00;;;9.40;99.90;;;;;;5107122;28;20221;-68
2021/04/19 03:11:34;;;;;;;4.10;1.73;;;9.30;99.90;;;;;;5106671;28;20206;-68
2021/04/19 03:14:05;;;;;;;4.20;1.70;;;9.40;99.90;;;;;;5102700;28;20654;-67
2021/04/19 03:16:49;;;;;;;4.00;2.43;;;9.40;99.90;;;;;;5101698;28;20393;-68
2021/04/19 03:19:25;;;;;;;2.27;1.90;;;9.30;99.90;;;;;;5106453;28;20610;-68
2021/04/19 03:21:54;;;;;;;2.57;2.07;;;9.30;99.90;;;;;;5107157;28;20238;-67
2021/04/19 03:24:24;;;;;;;2.07;1.90;;;9.30;99.90;;;;;;5119966;27;20671;-68
2021/04/19 03:27:16;;;;;;;2.70;1.80;;;9.30;99.90;;;;;;5044870;28;20236;-67
2021/04/19 03:29:52;;;;;;;2.73;2.10;;;9.30;99.90;;;;;;5027325;28;20227;-67
2021/04/19 03:32:25;;;;;;;2.03;1.77;;;9.30;99.90;;;;;;5044210;28;20267;-68
2021/04/19 03:34:56;;;;;;;4.13;2.10;;;9.40;99.90;;;;;;5036906;28;20206;-67
2021/04/19 03:37:32;;;;;;;5.10;2.27;;;9.30;99.90;;;;;;5045404;28;20200;-67
2021/04/19 03:40:03;;;;;;;5.43;2.50;;;9.30;99.90;;;;;;5030554;28;20235;-67
2021/04/19 03:42:37;;;;;;;2.97;2.03;;;9.30;99.90;;;;;;5033776;28;20515;-67
2021/04/19 03:45:11;;;;;;;4.13;2.17;;;9.30;99.90;;;;;;5021969;28;20686;-67
2021/04/19 03:48:13;;;;;;;2.37;1.90;;;9.30;99.90;;;;;;5050278;28;20374;-67
2021/04/19 03:50:50;;;;;;;2.27;2.00;;;9.30;99.90;;;;;;5034058;28;20651;-67
2021/04/19 03:53:21;;;;;;;6.80;2.43;;;9.40;99.90;;;;;;5035088;28;20230;-67
2021/04/19 03:55:49;;;;;;;2.63;2.30;;;9.30;99.90;;;;;;5048126;28;20242;-67
2021/04/19 03:58:21;;;;;;;8.17;2.67;;;9.30;99.90;;;;;;5029015;28;20215;-67
2021/04/19 04:00:54;;;;;;;7.27;3.00;;;9.30;99.90;;;;;;5029802;28;20200;-68
2021/04/19 04:03:46;;;;;;;7.80;2.90;;;9.30;99.90;;;;;;5068631;27;20209;-67
2021/04/19 04:06:24;;;;;;;3.37;2.17;;;9.30;99.90;;;;;;5105851;28;20225;-70
2021/04/19 04:08:53;;;;;;;3.00;2.43;;;9.40;99.90;;;;;;5109817;28;20193;-69
2021/04/19 04:11:21;;;;;;;4.20;2.40;;;9.40;99.90;;;;;;5108531;28;20212;-67
2021/04/19 04:13:55;;;;;;;4.63;2.80;;;9.50;99.90;;;;;;5104410;28;20662;-67
2021/04/19 04:16:23;;;;;;;3.57;2.73;;;9.50;99.90;;;;;;5108872;28;20193;-67
2021/04/19 04:19:10;;;;;;;1.90;1.70;;;9.60;99.90;;;;;;5113944;27;20677;-67
2021/04/19 04:21:56;;;;;;;2.87;2.37;;;9.60;99.90;;;;;;5115806;27;20635;-67
2021/04/19 04:24:39;;;;;;;4.00;2.60;;;9.70;99.90;;;;;;5112627;27;20201;-67
2021/04/19 04:27:07;;;;;;;2.50;2.30;;;9.70;99.90;;;;;;5111068;28;20667;-67
2021/04/19 04:29:36;;;;;;;4.10;2.10;;;9.70;99.90;;;;;;5109809;27;20229;-67
2021/04/19 04:32:20;;;;;;;2.63;2.10;;;9.80;99.90;;;;;;5111194;27;20211;-67
2021/04/19 04:34:53;;;;;;;3.00;2.50;;;9.80;99.90;;;;;;5114431;27;20722;-67
2021/04/19 04:37:21;;;;;;;5.43;2.50;;;9.90;99.90;;;;;;5118925;27;20229;-67
2021/04/19 04:40:00;;;;;;;3.87;3.00;;;9.90;99.90;;;;;;5108341;27;20855;-67
2021/04/19 04:42:30;;;;;;;5.40;3.57;;;9.90;99.90;;;;;;5136136;27;20200;-67
2021/04/19 04:44:57;;;;;;;4.90;3.23;;;9.90;99.90;;;;;;5117329;27;20221;-67
2021/04/19 04:47:31;;;;;;;7.07;3.90;;;10.00;99.90;;;;;;5109519;28;20663;-67
2021/04/19 04:50:08;;;;;;;6.47;3.60;;;9.90;99.90;;;;;;5118399;27;20206;-68
2021/04/19 04:52:46;;;;;;;10.57;3.80;;;10.00;99.90;;;;;;5126164;27;20209;-67
2021/04/19 04:55:15;;;;;;;10.67;4.60;;;10.00;99.90;;;;;;5115277;27;20212;-67
2021/04/19 04:57:45;;;;;;;9.77;4.43;;;10.10;99.90;;;;;;5104368;27;20197;-68
2021/04/19 05:00:15;;;;;;;7.17;3.80;;;10.10;99.90;;;;;;5101265;28;20249;-68
2021/04/19 05:02:45;;;;;;;8.83;4.33;;;10.10;99.90;;;;;;5110146;28;20298;-68
2021/04/19 05:05:13;;;;;;;13.07;4.40;;;10.10;99.90;;;;;;5108561;27;20651;-68
2021/04/19 05:07:40;;;;;;;7.70;4.00;;;10.20;99.90;;;;;;5111954;27;20249;-68
2021/04/19 05:10:08;;;;;;;11.53;4.73;;;10.20;99.90;;;;;;5108160;27;20195;-67
2021/04/19 05:12:37;;;;;;;10.27;4.70;;;10.30;99.90;;;;;;5113225;27;20218;-67
2021/04/19 05:15:09;;;;;;;17.03;4.50;;;10.30;99.90;;;;;;5103470;27;20192;-67
2021/04/19 05:17:36;;;;;;;16.40;5.03;;;10.40;99.90;;;;;;5108379;28;20217;-67
2021/04/19 05:20:04;;;;;;;21.03;5.93;;;10.50;99.90;;;;;;5108406;28;20654;-67
2021/04/19 05:22:31;;;;;;;8.70;3.77;;;10.50;99.90;;;;;;5109940;28;20297;-67
2021/04/19 05:24:57;;;;;;;8.63;3.57;;;10.60;99.90;;;;;;5114094;27;20598;-67
2021/04/19 05:27:24;;;;;;;5.30;2.90;;;10.70;99.90;;;;;;5123151;27;20281;-67
2021/04/19 05:29:51;;;;;;;7.33;3.00;;;10.80;99.90;;;;;;5107750;28;20203;-68
2021/04/19 05:32:21;;;;;;;8.07;3.60;;;10.90;99.90;;;;;;5116265;27;20565;-67
2021/04/19 05:34:49;;;;;;;7.83;3.87;;;11.10;99.90;;;;;;5106101;28;20252;-67
2021/04/19 05:37:17;;;;;;;10.83;3.63;;;11.70;99.90;;;;;;5108521;28;20686;-68
2021/04/19 05:39:44;;;;;;;10.60;3.90;;;12.10;99.90;;;;;;5106504;28;20218;-67
2021/04/19 05:42:12;;;;;;;11.57;3.63;;;12.40;99.90;;;;;;5109878;28;20196;-67
2021/04/19 05:44:39;;;;;;;5.57;3.30;;;12.60;99.90;;;;;;5108029;28;20199;-67
2021/04/19 05:47:06;;;;;;;5.73;2.60;;;12.70;99.90;;;;;;5109673;28;20565;-67
2021/04/19 05:49:33;;;;;;;10.83;3.80;;;13.00;99.90;;;;;;5109806;28;20245;-67
2021/04/19 05:52:03;;;;;;;10.13;3.33;;;13.10;99.90;;;;;;5108716;28;20610;-67
2021/04/19 05:54:31;;;;;;;8.77;3.13;;;13.40;99.90;;;;;;5125488;27;20237;-67
2021/04/19 05:57:09;;;;;;;5.93;3.00;;;13.70;99.90;;;;;;5117574;27;20188;-67
2021/04/19 05:59:44;;;;;;;6.80;2.50;;;13.90;99.90;;;;;;5099257;28;20242;-67
2021/04/19 06:02:13;;;;;;;10.63;3.37;;;14.30;99.90;;;;;;5110553;27;20198;-67
2021/04/19 06:04:48;;;;;;;18.07;3.63;;;14.80;99.70;;;;;;5110737;27;20666;-68
2021/04/19 06:07:20;;;;;;;13.10;4.00;;;15.30;98.20;;;;;;5117148;27;20233;-67
2021/04/19 06:10:12;;;;;;;12.23;3.53;;;15.60;96.10;;;;;;5102833;27;20718;-67
2021/04/19 06:12:52;;;;;;;8.00;3.47;;;16.10;94.20;;;;;;5118305;27;20203;-67
2021/04/19 06:15:24;;;;;;;4.87;2.70;;;16.70;92.50;;;;;;5105806;27;20341;-68
2021/04/19 06:17:53;;;;;;;5.47;3.30;;;17.40;91.10;;;;;;5110362;28;20228;-68
2021/04/19 06:20:21;;;;;;;9.80;3.40;;;18.20;88.90;;;;;;5108366;28;20249;-67
2021/04/19 06:22:50;;;;;;;12.80;3.80;;;19.10;81.60;;;;;;5118709;27;20284;-67
2021/04/19 06:25:19;;;;;;;13.03;3.73;;;19.70;76.20;;;;;;5105202;28;20204;-67
2021/04/19 06:27:45;;;;;;;7.37;3.13;;;20.20;73.90;;;;;;5119935;27;20215;-67
2021/04/19 06:30:15;;;;;;;11.77;3.30;;;20.80;72.20;;;;;;5123833;27;20286;-67
2021/04/19 06:32:46;;;;;;;12.03;3.37;;;21.10;68.60;;;;;;5124713;27;20225;-67
2021/04/19 06:35:15;;;;;;;6.07;3.37;;;21.20;65.30;;;;;;5124714;28;20198;-67
2021/04/19 06:37:42;;;;;;;11.02;3.70;;;21.20;64.20;;;;;;5126142;27;20300;-68
2021/04/19 06:40:11;;;;;;;9.93;3.65;;;21.20;63.40;;;;;;5094955;28;20262;-67
2021/04/19 06:42:37;;;;;;;5.72;3.00;;;21.30;63.50;;;;;;5108066;28;20202;-67
2021/04/19 06:45:05;;;;;;;8.52;3.78;;;21.60;63.30;;;;;;5106338;28;20223;-68
2021/04/19 06:47:35;;;;;;;12.38;4.38;;;22.00;61.20;;;;;;5108820;28;20215;-68
2021/04/19 06:50:03;;;;;;;10.65;3.47;;;22.30;59.70;;;;;;5104532;27;20192;-67
2021/04/19 06:52:31;;;;;;;8.20;3.55;;;22.80;59.60;;;;;;5103099;28;20254;-67
2021/04/19 06:54:58;;;;;;;9.23;3.53;;;23.40;57.90;;;;;;5107860;28;20198;-67
2021/04/19 06:57:28;;;;;;;8.65;3.75;;;24.00;57.10;;;;;;5106201;28;20631;-68
2021/04/19 06:59:56;;;;;;;5.75;3.45;;;24.40;55.10;;;;;;5105753;28;20669;-68
2021/04/19 07:02:26;;;;;;;13.07;4.28;;;24.90;54.60;;;;;;5108810;28;20219;-68
2021/04/19 07:04:56;;;;;;;16.65;4.95;;;25.20;53.10;;;;;;5108246;28;20612;-68
2021/04/19 07:07:26;;;;;;;10.32;4.25;;;25.50;51.30;;;;;;5108274;28;20879;-67
2021/04/19 07:09:56;;;;;;;4.20;3.70;;;25.50;50.40;;;;;;5108430;28;20701;-68
2021/04/19 07:12:24;;;;;;;9.30;4.35;;;25.70;50.20;;;;;;5104341;28;20188;-68
2021/04/19 07:14:55;;;;;;;11.13;4.47;;;25.90;48.80;;;;;;5107905;28;20221;-67
2021/04/19 07:17:22;;;;;;;10.93;4.60;;;26.00;48.00;;;;;;5120276;27;20510;-68
2021/04/19 07:19:49;;;;;;;8.32;3.90;;;25.80;47.60;;;;;;5113716;27;20192;-67
2021/04/19 07:22:22;;;;;;;8.15;4.13;;;26.10;47.90;;;;;;5110268;28;20192;-67
2021/04/19 07:24:51;;;;;;;8.02;3.47;;;26.50;47.20;;;;;;5109858;28;20203;-67
2021/04/19 07:27:18;;;;;;;9.57;4.45;;;26.90;47.20;;;;;;5119076;27;20282;-68
2021/04/19 07:29:46;;;;;;;6.28;3.83;;;27.20;46.20;;;;;;5110873;27;20196;-68
2021/04/19 07:32:15;;;;;;;7.10;3.78;;;27.70;45.40;;;;;;5111305;27;20196;-68
2021/04/19 07:34:41;;;;;;;8.07;4.25;;;28.90;44.50;;;;;;5115897;27;20196;-68
2021/04/19 07:37:12;;;;;;;8.07;3.85;;;30.20;43.00;;;;;;5110674;28;20534;-67
2021/04/19 07:39:40;;;;;;;14.77;4.30;;;31.50;40.70;;;;;;5113974;27;20234;-68
2021/04/19 07:42:08;;;;;;;14.75;4.78;;;32.80;39.60;;;;;;5108939;28;20725;-67
2021/04/19 07:44:37;;;;;;;7.05;4.53;;;34.00;37.10;;;;;;5108059;28;20442;-68
2021/04/19 07:47:30;;;;;;;10.50;3.90;;;34.90;35.10;;;;;;5099876;28;20318;-67
2021/04/19 07:50:16;;;;;;;10.07;5.28;;;35.90;34.50;;;;;;5110984;28;20237;-67
2021/04/19 07:52:57;;;;;;;15.68;6.15;;;37.00;32.80;;;;;;5105976;27;20310;-68
2021/04/19 07:55:27;;;;;;;9.85;6.22;;;37.80;31.40;;;;;;5117261;27;20192;-67
2021/04/19 07:57:54;;;;;;;11.27;5.72;;;38.60;30.30;;;;;;5110246;27;20228;-67
2021/04/19 08:00:30;;;;;;;14.10;6.65;;;39.20;29.70;;;;;;5109585;27;20196;-67
2021/04/19 08:03:02;;;;;;;11.63;6.13;;;39.90;28.90;;;;;;5107972;27;20199;-67
2021/04/19 08:05:33;;;;;;;14.48;6.65;;;40.10;28.00;;;;;;5110381;27;20200;-68
2021/04/19 08:08:00;;;;;;;11.50;5.97;;;40.50;27.50;;;;;;5111228;27;20261;-66
2021/04/19 08:10:26;;;;;;;18.27;7.43;;;41.00;27.50;;;;;;5109730;27;20211;-67
2021/04/19 08:13:05;;;;;;;19.35;7.65;;;41.50;26.50;;;;;;5110298;27;20348;-67
2021/04/19 08:15:33;;;;;;;19.08;7.05;;;41.90;26.30;;;;;;5111269;27;20195;-67
2021/04/19 08:18:02;;;;;;;22.98;7.78;;;42.60;26.20;;;;;;5112990;27;20580;-66
2021/04/19 08:20:28;;;;;;;13.50;7.38;;;43.00;25.40;;;;;;5110591;27;20239;-66
2021/04/19 08:23:13;;;;;;;20.85;8.30;;;43.30;24.80;;;;;;5115162;27;20196;-67
2021/04/19 08:25:46;;;;;;;14.52;7.68;;;43.40;24.40;;;;;;5112952;27;20244;-67
2021/04/19 08:28:15;;;;;;;17.45;8.48;;;43.60;24.10;;;;;;5109635;27;20195;-67
2021/04/19 08:30:43;;;;;;;18.05;7.90;;;43.60;23.70;;;;;;5113858;27;20207;-67
2021/04/19 08:33:11;;;;;;;12.07;7.28;;;43.80;23.60;;;;;;5106018;27;20217;-67
2021/04/19 08:35:39;;;;;;;10.05;6.20;;;44.40;24.00;;;;;;5120372;27;20201;-67
2021/04/19 08:38:06;;;;;;;17.30;7.90;;;45.00;23.80;;;;;;5109742;27;20287;-67
2021/04/19 08:40:34;;;;;;;17.02;7.95;;;45.60;23.30;;;;;;5116808;27;20203;-66
2021/04/19 08:43:02;;;;;;;16.42;7.78;;;46.00;22.90;;;;;;5108758;28;20274;-67
2021/04/19 08:45:29;;;;;;;13.05;7.40;;;46.20;22.10;;;;;;5096597;28;20215;-67
2021/04/19 08:47:56;;;;;;;13.82;6.95;;;46.10;21.90;;;;;;5111939;27;20195;-66
2021/04/19 08:50:25;;;;;;;16.80;7.25;;;46.00;21.60;;;;;;5121965;27;20284;-66
2021/04/19 08:52:54;;;;;;;16.60;7.65;;;45.80;21.50;;;;;;5116016;27;20287;-66
2021/04/19 08:55:22;;;;;;;14.15;6.88;;;45.80;21.60;;;;;;5100867;27;20542;-69
2021/04/19 08:57:49;;;;;;;14.73;7.20;;;45.90;21.50;;;;;;5111598;27;20279;-67
2021/04/19 09:00:21;;;;;;;15.00;6.55;;;45.90;21.20;;;;;;5108810;28;20201;-68
2021/04/19 09:02:48;;;;;;;12.90;7.07;;;45.90;21.30;;;;;;5107874;28;20275;-68
2021/04/19 09:05:16;;;;;;;16.80;7.85;;;45.80;21.20;;;;;;5108609;28;20191;-68
2021/04/19 09:07:46;;;;;;;12.40;7.40;;;45.90;20.90;;;;;;5115355;27;20551;-67
2021/04/19 09:10:14;;;;;;;8.88;6.35;;;45.90;21.00;;;;;;5106453;28;20511;-67
2021/04/19 09:12:44;;;;;;;7.93;6.40;;;45.90;20.90;;;;;;5110271;27;20499;-69
2021/04/19 09:15:27;;;;;;;12.02;6.97;;;46.10;20.90;;;;;;5128444;27;20203;-68
2021/04/19 09:18:18;;;;;;;10.85;6.75;;;46.50;20.80;;;;;;5102808;27;20397;-68
2021/04/19 09:20:48;;;;;;;11.50;7.07;;;46.60;20.40;;;;;;5056646;28;20322;-69
2021/04/19 09:23:23;;;;;;;12.13;7.65;;;46.70;20.30;;;;;;5047793;28;20217;-69
2021/04/19 09:25:51;;;;;;;11.07;7.65;;;46.50;20.50;;;;;;5078175;28;20386;-69
2021/04/19 09:28:59;;;;;;;13.35;7.72;;;46.20;20.00;;;;;;5073658;28;20205;-69
2021/04/19 09:32:01;;;;;;;15.93;7.47;;;45.80;20.30;;;;;;5059067;28;20208;-69
2021/04/19 09:34:41;;;;;;;28.10;8.38;;;45.90;20.30;;;;;;5053581;28;20546;-67
2021/04/19 09:37:08;;;;;;;13.48;7.72;;;46.00;20.00;;;;;;5063128;28;20635;-69
2021/04/19 09:39:53;;;;;;;14.25;7.53;;;45.80;20.10;;;;;;5044107;28;20767;-68
2021/04/19 09:43:03;;;;;;;9.48;6.53;;;45.60;19.90;;;;;;5058247;28;20338;-68
2021/04/19 09:45:53;;;;;;;11.80;7.32;;;45.30;20.10;;;;;;5075810;28;20226;-68
2021/04/19 09:48:58;;;;;;;14.48;7.70;;;45.20;20.00;;;;;;5048836;28;20299;-68
2021/04/19 09:51:29;;;;;;;13.52;7.15;;;45.40;20.30;;;;;;5064236;28;20631;-68
2021/04/19 09:54:10;;;;;;;14.73;8.40;;;46.00;20.30;;;;;;5052252;28;20204;-68
2021/04/19 09:56:40;;;;;;;18.85;7.88;;;45.80;19.30;;;;;;5060927;28;20672;-69
2021/04/19 09:59:08;;;;;;;10.27;7.32;;;45.20;19.50;;;;;;5105668;28;20312;-69
2021/04/19 10:01:36;;;;;;;20.48;8.30;;;44.60;19.80;;;;;;5108572;28;20279;-69
2021/04/19 10:04:03;;;;;;;9.82;7.18;;;44.50;20.00;;;;;;5106707;28;20218;-68
2021/04/19 10:06:33;;;;;;;12.13;7.25;;;44.40;20.10;;;;;;5108620;28;20226;-68
2021/04/19 10:09:02;;;;;;;13.98;7.38;;;44.50;19.90;;;;;;5111327;27;20721;-68
2021/04/19 10:11:31;;;;;;;8.77;6.63;;;44.30;19.90;;;;;;5109910;27;20187;-69
2021/04/19 10:14:06;;;;;;;8.68;6.32;;;44.00;20.10;;;;;;5106978;28;20202;-69
2021/04/19 10:16:40;;;;;;;9.40;5.60;;;43.90;20.30;;;;;;5109724;27;20441;-68
2021/04/19 10:19:06;;;;;;;9.75;6.85;;;43.90;20.30;;;;;;5112055;27;20207;-68
2021/04/19 10:21:33;;;;;;;7.07;5.65;;;43.70;20.20;;;;;;5113217;27;20851;-69
2021/04/19 10:24:00;;;;;;;11.98;6.05;;;43.40;20.40;;;;;;5110624;27;20281;-69
2021/04/19 10:26:34;;;;;;;11.73;5.90;;;43.10;20.50;;;;;;5107576;28;20215;-69
2021/04/19 10:29:13;;;;;;;11.60;6.15;;;42.50;20.70;;;;;;5115756;27;20204;-68
2021/04/19 10:31:50;;;;;;;10.73;6.15;;;42.20;20.80;;;;;;5106171;28;20225;-69
2021/04/19 10:34:17;;;;;;;7.40;5.47;;;41.90;20.90;;;;;;5112575;28;20194;-69
2021/04/19 10:36:47;;;;;;;13.23;5.47;;;41.70;21.20;;;;;;5112844;28;20195;-69
2021/04/19 10:39:16;;;;;;;7.60;5.97;;;41.90;21.30;;;;;;5107443;28;20230;-68
2021/04/19 10:41:43;;;;;;;9.93;6.38;;;41.70;21.20;;;;;;5105307;28;20616;-69
2021/04/19 10:44:11;;;;;;;12.00;6.28;;;41.80;21.30;;;;;;5115938;28;20273;-69
2021/04/19 10:46:39;;;;;;;12.70;6.90;;;41.90;21.30;;;;;;5109241;27;20199;-67
2021/04/19 10:49:07;;;;;;;11.73;5.68;;;42.10;21.40;;;;;;5110567;27;20229;-68
2021/04/19 10:51:35;;;;;;;6.13;5.53;;;42.20;21.30;;;;;;5109525;28;20624;-68
2021/04/19 10:54:04;;;;;;;10.35;5.88;;;42.40;21.40;;;;;;5121073;27;20285;-68
2021/04/19 10:56:31;;;;;;;11.38;6.30;;;42.70;21.00;;;;;;5124374;27;20278;-68
2021/04/19 10:59:01;;;;;;;27.70;9.95;;;42.40;20.50;;;;;;5105998;28;20253;-68
2021/04/19 11:01:30;;;;;;;14.73;6.05;;;41.80;20.60;;;;;;5110188;28;20335;-70
2021/04/19 11:03:58;;;;;;;11.18;5.82;;;41.30;20.80;;;;;;5093249;28;20474;-66
2021/04/19 11:06:25;;;;;;;10.07;5.85;;;40.70;21.00;;;;;;5109672;27;20191;-67
2021/04/19 11:08:57;;;;;;;12.52;5.72;;;40.30;21.40;;;;;;5109597;28;20608;-68
2021/04/19 11:11:30;;;;;;;10.25;6.07;;;39.90;21.20;;;;;;5113881;27;20195;-68
2021/04/19 11:14:09;;;;;;;11.60;5.63;;;39.50;21.30;;;;;;5110635;27;20195;-68
2021/04/19 11:16:37;;;;;;;13.27;6.32;;;38.90;21.50;;;;;;5112850;27;20332;-69
2021/04/19 11:19:04;;;;;;;16.38;6.28;;;38.40;21.80;;;;;;5116396;27;20198;-68
2021/04/19 11:21:33;;;;;;;10.07;5.85;;;37.80;22.10;;;;;;5112596;27;20318;-68
2021/04/19 11:24:11;;;;;;;10.40;5.55;;;37.10;22.40;;;;;;5115065;27;20195;-69
2021/04/19 11:26:39;;;;;;;11.65;5.28;;;36.40;22.60;;;;;;5110305;27;20204;-68
2021/04/19 11:29:06;;;;;;;10.68;5.53;;;36.00;22.80;;;;;;5114596;27;20192;-67
2021/04/19 11:31:43;;;;;;;5.40;4.60;;;35.30;23.10;;;;;;5107362;27;20242;-67
2021/04/19 11:34:12;;;;;;;5.35;4.85;;;34.80;23.60;;;;;;5105532;27;20288;-68
2021/04/19 11:36:41;;;;;;;13.35;4.97;;;34.40;23.70;;;;;;5112514;27;20604;-68
2021/04/19 11:39:12;;;;;;;6.22;4.88;;;34.10;23.90;;;;;;5114277;27;21122;-68
2021/04/19 11:41:39;;;;;;;18.25;4.90;;;33.60;23.90;;;;;;5113082;27;20203;-67
2021/04/19 11:44:06;;;;;;;6.97;4.70;;;33.20;24.60;;;;;;5116065;27;20566;-67
2021/04/19 11:46:33;;;;;;;7.45;4.70;;;32.60;24.20;;;;;;5115649;27;20199;-67
2021/04/19 11:49:00;;;;;;;9.02;5.03;;;31.90;24.60;;;;;;5111020;27;20188;-67
2021/04/19 11:51:27;;;;;;;8.25;4.80;;;31.30;25.10;;;;;;5109534;28;20671;-67
2021/04/19 11:53:54;;;;;;;8.82;4.55;;;30.80;26.00;;;;;;5110727;28;20291;-68
2021/04/19 11:56:21;;;;;;;10.20;4.95;;;30.50;26.00;;;;;;5115402;27;20212;-68
2021/04/19 11:58:50;;;;;;;11.38;5.40;;;30.30;26.40;;;;;;5107339;28;20215;-68
2021/04/19 12:01:19;;;;;;;11.07;4.57;;;30.00;26.70;;;;;;5109070;28;20280;-68
2021/04/19 12:03:45;;;;;;;9.52;4.50;;;29.90;27.10;;;;;;5109873;28;20278;-68
2021/04/19 12:06:16;;;;;;;8.85;4.15;;;29.40;27.40;;;;;;5110830;27;20207;-68
2021/04/19 12:08:44;;;;;;;11.77;4.10;;;28.90;28.00;;;;;;5103309;27;20443;-68
2021/04/19 12:11:12;;;;;;;4.93;4.18;;;28.10;28.50;;;;;;5109533;27;20211;-68
2021/04/19 12:13:38;;;;;;;7.68;4.75;;;27.20;29.30;;;;;;5102598;28;20265;-68
2021/04/19 12:16:06;;;;;;;8.13;4.10;;;26.40;29.80;;;;;;5124440;27;20326;-68
2021/04/19 12:18:33;;;;;;;5.30;3.88;;;25.70;30.60;;;;;;5105569;27;20298;-68
2021/04/19 12:21:01;;;;;;;5.93;3.25;;;25.00;31.20;;;;;;5114492;27;20298;-68
2021/04/19 12:23:29;;;;;;;5.30;3.63;;;24.30;31.90;;;;;;5112002;27;20188;-68
2021/04/19 12:25:56;;;;;;;11.52;3.80;;;23.60;32.30;;;;;;5114491;27;20199;-68
2021/04/19 12:28:24;;;;;;;7.43;3.60;;;22.90;32.90;;;;;;5108463;27;20196;-68
2021/04/19 12:30:52;;;;;;;5.13;3.20;;;22.30;33.50;;;;;;5113915;27;20204;-68
2021/04/19 12:33:19;;;;;;;5.00;3.60;;;21.70;34.00;;;;;;5113152;27;20398;-67
2021/04/19 12:35:46;;;;;;;8.23;4.05;;;21.30;34.40;;;;;;5116122;27;20857;-68
2021/04/19 12:38:14;;;;;;;4.45;3.50;;;20.90;34.90;;;;;;5114096;27;20219;-69
2021/04/19 12:40:42;;;;;;;8.73;2.92;;;20.50;35.40;;;;;;5104252;27;20622;-68
2021/04/19 12:43:09;;;;;;;4.32;3.10;;;20.10;35.90;;;;;;5109852;27;20801;-67
2021/04/19 12:45:36;;;;;;;5.88;3.30;;;19.90;36.40;;;;;;5116105;27;20608;-68
2021/04/19 12:48:04;;;;;;;6.47;3.35;;;19.60;36.70;;;;;;5111409;27;20631;-68
2021/04/19 12:50:31;;;;;;;8.57;3.65;;;19.30;37.20;;;;;;5114585;27;20531;-68
2021/04/19 12:52:59;;;;;;;7.90;4.10;;;19.00;37.60;;;;;;5112364;27;20718;-68
2021/04/19 12:55:26;;;;;;;15.30;4.50;;;18.70;37.90;;;;;;5127984;27;20191;-69
2021/04/19 12:57:54;;;;;;;11.02;4.07;;;18.40;38.10;;;;;;5110766;27;20247;-69
2021/04/19 13:00:24;;;;;;;9.55;3.85;;;18.70;39.10;;;;;;5104585;27;20747;-68
2021/04/19 13:02:51;;;;;;;11.60;4.30;;;17.90;38.90;;;;;;5119702;27;20650;-69
2021/04/19 13:05:17;;;;;;;8.95;3.83;;;17.60;39.40;;;;;;5108273;27;20303;-69